createdAt,value
2023-05-25T00:02:24.755Z,63.17
2023-05-25T00:04:52.190Z,63.28
2023-05-25T00:07:19.126Z,63.61
2023-05-25T00:09:46.649Z,63.59
2023-05-25T00:12:14.378Z,63.60
2023-05-25T00:14:41.004Z,63.54
2023-05-25T00:17:10.216Z,63.71
2023-05-25T00:19:38.094Z,63.58
2023-05-25T00:22:05.121Z,63.91
2023-05-25T00:24:31.944Z,63.87
2023-05-25T00:26:58.901Z,63.91
2023-05-25T00:29:26.186Z,64.04
2023-05-25T00:31:53.749Z,64.06
2023-05-25T00:34:20.890Z,64.07
2023-05-25T00:36:50.628Z,64.41
2023-05-25T00:39:19.282Z,64.33
2023-05-25T00:41:46.899Z,64.37
2023-05-25T00:44:14.962Z,64.27
2023-05-25T00:46:52.597Z,64.10
2023-05-25T00:49:23.092Z,64.49
2023-05-25T00:51:52.411Z,64.29
2023-05-25T00:54:19.647Z,64.32
2023-05-25T00:57:14.681Z,64.24
2023-05-25T00:59:48.433Z,64.17
2023-05-25T01:02:19.240Z,63.99
2023-05-25T01:04:52.733Z,64.07
2023-05-25T01:07:23.492Z,63.97
2023-05-25T01:10:06.991Z,63.98
2023-05-25T01:12:45.937Z,64.00
2023-05-25T01:15:12.697Z,64.15
2023-05-25T01:17:39.548Z,64.07
2023-05-25T01:20:11.386Z,63.96
2023-05-25T01:22:54.205Z,63.78
2023-05-25T01:25:27.663Z,63.68
2023-05-25T01:27:54.194Z,63.89
2023-05-25T01:30:25.334Z,63.93
2023-05-25T01:32:54.103Z,63.96
2023-05-25T01:35:22.065Z,63.84
2023-05-25T01:37:49.979Z,63.81
2023-05-25T01:40:16.665Z,63.86
2023-05-25T01:42:43.630Z,63.77
2023-05-25T01:45:12.746Z,63.77
2023-05-25T01:48:03.538Z,63.79
2023-05-25T01:50:30.145Z,64.02
2023-05-25T01:53:04.819Z,63.87
2023-05-25T01:55:36.892Z,63.60
2023-05-25T01:58:06.099Z,63.62
2023-05-25T02:00:33.354Z,63.74
2023-05-25T02:03:01.506Z,63.61
2023-05-25T02:05:28.306Z,63.49
2023-05-25T02:07:54.987Z,63.67
2023-05-25T02:10:21.652Z,63.56
2023-05-25T02:12:48.220Z,63.55
2023-05-25T02:15:16.143Z,63.66
2023-05-25T02:17:43.343Z,63.86
2023-05-25T02:20:11.759Z,63.98
2023-05-25T02:22:38.402Z,63.94
2023-05-25T02:25:05.810Z,63.86
2023-05-25T02:27:32.461Z,63.85
2023-05-25T02:29:59.015Z,64.04
2023-05-25T02:32:25.624Z,64.21
2023-05-25T02:34:52.285Z,64.30
2023-05-25T02:37:18.874Z,64.27
2023-05-25T02:39:45.412Z,64.28
2023-05-25T02:42:12.288Z,64.41
2023-05-25T02:44:38.831Z,64.36
2023-05-25T02:47:06.845Z,64.24
2023-05-25T02:49:34.445Z,64.05
2023-05-25T02:52:01.064Z,63.98
2023-05-25T02:54:27.639Z,64.03
2023-05-25T02:56:54.238Z,64.10
2023-05-25T02:59:21.609Z,64.17
2023-05-25T03:01:48.253Z,64.32
2023-05-25T03:04:14.932Z,64.33
2023-05-25T03:06:41.747Z,64.36
2023-05-25T03:09:09.687Z,64.10
2023-05-25T03:11:36.337Z,64.27
2023-05-25T03:14:03.011Z,64.54
2023-05-25T03:16:29.614Z,64.69
2023-05-25T03:18:56.226Z,65.02
2023-05-25T03:21:23.715Z,65.32
2023-05-25T03:23:50.278Z,65.39
2023-05-25T03:26:17.601Z,65.38
2023-05-25T03:28:44.312Z,65.55
2023-05-25T03:31:12.189Z,65.82
2023-05-25T03:33:38.802Z,65.79
2023-05-25T03:36:09.387Z,65.86
2023-05-25T03:38:38.818Z,65.72
2023-05-25T03:41:05.623Z,65.61
2023-05-25T03:43:32.284Z,65.37
2023-05-25T03:45:58.929Z,65.29
2023-05-25T03:48:25.874Z,65.09
2023-05-25T03:50:52.696Z,64.60
2023-05-25T03:53:19.306Z,64.88
2023-05-25T03:55:46.071Z,64.85
2023-05-25T03:58:13.375Z,64.69
2023-05-25T04:00:39.959Z,64.82
2023-05-25T04:03:07.037Z,64.78
2023-05-25T04:05:33.789Z,64.77
2023-05-25T04:08:00.362Z,64.87
2023-05-25T04:10:26.976Z,64.86
2023-05-25T04:12:56.658Z,64.77
2023-05-25T04:15:26.630Z,64.55
2023-05-25T04:17:53.360Z,64.56
2023-05-25T04:20:20.052Z,64.33
2023-05-25T04:22:47.663Z,64.11
2023-05-25T04:25:14.429Z,64.02
2023-05-25T04:27:42.275Z,64.03
2023-05-25T04:30:11.121Z,64.12
2023-05-25T04:32:38.578Z,64.12
2023-05-25T04:35:05.695Z,64.50
2023-05-25T04:37:33.365Z,64.47
2023-05-25T04:40:00.120Z,64.16
2023-05-25T04:42:26.969Z,63.66
2023-05-25T04:44:55.690Z,63.64
2023-05-25T04:47:24.954Z,63.64
2023-05-25T04:49:51.997Z,63.70
2023-05-25T04:52:18.663Z,63.80
2023-05-25T04:54:46.899Z,63.74
2023-05-25T04:57:13.576Z,63.55
2023-05-25T04:59:40.231Z,63.53
2023-05-25T05:02:06.857Z,63.36
2023-05-25T05:04:33.456Z,63.26
2023-05-25T05:07:00.145Z,63.11
2023-05-25T05:09:26.731Z,63.20
2023-05-25T05:11:53.338Z,63.36
2023-05-25T05:14:19.893Z,63.04
2023-05-25T05:16:48.148Z,62.84
2023-05-25T05:19:14.893Z,62.64
2023-05-25T05:21:41.497Z,62.43
2023-05-25T05:24:08.094Z,62.28
2023-05-25T05:26:48.258Z,62.02
2023-05-25T05:29:21.482Z,61.83
2023-05-25T05:31:48.259Z,61.75
2023-05-25T05:34:14.879Z,61.67
2023-05-25T05:36:56.034Z,61.50
2023-05-25T05:39:24.256Z,61.07
2023-05-25T05:41:50.844Z,60.43
2023-05-25T05:44:17.433Z,60.38
2023-05-25T05:46:44.215Z,60.38
2023-05-25T05:49:10.847Z,60.25
2023-05-25T05:51:37.400Z,60.14
2023-05-25T05:54:04.564Z,59.90
2023-05-25T05:56:31.398Z,59.80
2023-05-25T05:58:58.107Z,59.70
2023-05-25T06:01:25.448Z,59.46
2023-05-25T06:03:54.341Z,59.58
2023-05-25T06:06:21.716Z,59.23
2023-05-25T06:08:48.629Z,59.13
2023-05-25T06:11:15.380Z,58.80
2023-05-25T06:13:42.029Z,58.67
2023-05-25T06:16:08.661Z,58.71
2023-05-25T06:18:35.320Z,58.61
2023-05-25T06:21:02.502Z,58.31
2023-05-25T06:23:29.055Z,58.05
2023-05-25T06:25:55.721Z,57.76
2023-05-25T06:28:22.292Z,57.02
2023-05-25T06:30:49.212Z,57.07
2023-05-25T06:33:16.236Z,56.96
2023-05-25T06:35:43.158Z,57.01
2023-05-25T06:38:11.530Z,56.82
2023-05-25T06:40:38.277Z,56.35
2023-05-25T06:43:04.877Z,56.38
2023-05-25T06:45:31.501Z,56.67
2023-05-25T06:47:58.139Z,56.58
2023-05-25T06:50:24.872Z,56.49
2023-05-25T06:52:51.592Z,56.48
2023-05-25T06:55:18.189Z,56.72
2023-05-25T06:57:44.824Z,57.02
2023-05-25T07:00:12.400Z,57.27
2023-05-25T07:02:39.556Z,57.30
2023-05-25T07:05:06.785Z,57.40
2023-05-25T07:07:33.764Z,57.72
2023-05-25T07:10:01.707Z,58.04
2023-05-25T07:12:28.317Z,57.72
2023-05-25T07:14:54.977Z,57.21
2023-05-25T07:17:22.331Z,57.57
2023-05-25T07:19:50.079Z,57.53
2023-05-25T07:22:19.006Z,57.75
2023-05-25T07:24:46.916Z,57.67
2023-05-25T07:27:14.335Z,57.55
2023-05-25T07:29:41.252Z,57.28
2023-05-25T07:32:07.948Z,56.61
2023-05-25T07:34:35.262Z,56.17
2023-05-25T07:37:01.896Z,56.63
2023-05-25T07:39:28.679Z,56.85
2023-05-25T07:41:55.359Z,56.96
2023-05-25T07:44:21.926Z,56.75
2023-05-25T07:46:48.540Z,55.74
2023-05-25T07:49:17.644Z,54.92
2023-05-25T07:51:47.539Z,54.88
2023-05-25T07:54:14.157Z,54.10
2023-05-25T07:56:40.944Z,54.57
2023-05-25T07:59:07.581Z,54.84
2023-05-25T08:01:34.191Z,54.33
2023-05-25T08:04:01.319Z,54.06
2023-05-25T08:06:28.046Z,53.64
2023-05-25T08:08:54.607Z,53.72
2023-05-25T08:11:27.690Z,53.95
2023-05-25T08:13:54.353Z,53.38
2023-05-25T08:16:21.260Z,53.84
2023-05-25T08:18:47.977Z,54.33
2023-05-25T08:21:14.582Z,53.84
2023-05-25T08:23:42.423Z,53.19
2023-05-25T08:26:26.092Z,53.62
2023-05-25T08:28:57.024Z,53.54
2023-05-25T08:31:23.655Z,53.91
2023-05-25T08:33:50.258Z,53.03
2023-05-25T08:36:16.815Z,53.00
2023-05-25T08:38:43.352Z,53.64
2023-05-25T08:41:12.847Z,52.21
2023-05-25T08:43:41.574Z,52.90
2023-05-25T08:46:09.189Z,53.30
2023-05-25T08:48:41.731Z,51.73
2023-05-25T08:51:11.944Z,50.74
2023-05-25T08:53:43.907Z,50.77
2023-05-25T08:56:16.092Z,50.11
2023-05-25T08:58:53.042Z,49.97
2023-05-25T09:01:22.584Z,50.29
2023-05-25T09:03:50.330Z,50.03
2023-05-25T09:06:17.695Z,49.86
2023-05-25T09:08:45.116Z,50.44
2023-05-25T09:11:16.573Z,48.97
2023-05-25T09:13:44.393Z,48.07
2023-05-25T09:16:11.592Z,48.57
2023-05-25T09:18:38.611Z,49.13
2023-05-25T09:21:05.364Z,47.98
2023-05-25T09:23:32.339Z,48.19
2023-05-25T09:26:01.199Z,48.39
2023-05-25T09:28:27.983Z,48.22
2023-05-25T09:30:56.096Z,47.23
2023-05-25T09:33:22.905Z,46.39
2023-05-25T09:35:49.840Z,46.41
2023-05-25T09:38:17.146Z,46.28
2023-05-25T09:40:44.827Z,45.13
2023-05-25T09:43:17.285Z,44.97
2023-05-25T09:45:49.028Z,45.27
2023-05-25T09:48:15.915Z,45.11
2023-05-25T09:50:43.381Z,45.14
2023-05-25T09:53:11.237Z,45.07
2023-05-25T09:55:51.968Z,46.26
2023-05-25T09:58:24.143Z,45.69
2023-05-25T10:00:55.530Z,45.92
2023-05-25T10:03:22.720Z,46.53
2023-05-25T10:05:49.892Z,46.47
2023-05-25T10:08:20.221Z,47.77
2023-05-25T10:10:50.023Z,47.13
2023-05-25T10:13:22.881Z,47.19
2023-05-25T10:15:54.182Z,48.01
2023-05-25T10:18:26.444Z,49.38
2023-05-25T10:21:04.757Z,45.95
2023-05-25T10:23:41.747Z,45.64
2023-05-25T10:26:09.952Z,46.27
2023-05-25T10:28:38.019Z,45.73
2023-05-25T10:31:05.862Z,46.18
2023-05-25T10:33:33.634Z,46.73
2023-05-25T10:36:10.157Z,46.45
2023-05-25T10:38:40.126Z,46.42
2023-05-25T10:41:09.989Z,46.16
2023-05-25T10:43:38.139Z,46.10
2023-05-25T10:46:06.321Z,47.20
2023-05-25T10:48:40.000Z,46.63
2023-05-25T10:51:08.319Z,46.67
2023-05-25T10:53:35.900Z,45.98
2023-05-25T10:56:04.592Z,45.26
2023-05-25T10:58:32.422Z,45.00
2023-05-25T11:01:13.618Z,44.92
2023-05-25T11:04:18.735Z,44.57
2023-05-25T11:06:48.245Z,44.48
2023-05-25T11:09:28.254Z,44.26
2023-05-25T11:12:03.461Z,43.71
2023-05-25T11:14:31.705Z,43.53
2023-05-25T11:17:11.924Z,43.57
2023-05-25T11:19:51.389Z,43.58
2023-05-25T11:22:21.248Z,43.16
2023-05-25T11:24:49.390Z,42.36
2023-05-25T11:27:21.833Z,42.33
2023-05-25T11:29:51.740Z,42.05
2023-05-25T11:32:18.603Z,41.84
2023-05-25T11:34:47.087Z,41.42
2023-05-25T11:37:21.150Z,41.90
2023-05-25T11:39:52.102Z,41.46
2023-05-25T11:42:24.345Z,42.03
2023-05-25T11:44:51.338Z,42.39
2023-05-25T11:47:23.004Z,42.66
2023-05-25T11:49:50.048Z,42.81
2023-05-25T11:52:18.171Z,42.79
2023-05-25T11:54:45.885Z,42.49
2023-05-25T11:57:16.930Z,41.83
2023-05-25T11:59:49.954Z,41.97
2023-05-25T12:02:17.143Z,42.24
2023-05-25T12:05:02.309Z,41.91
2023-05-25T12:07:30.625Z,41.72
2023-05-25T12:10:10.365Z,41.12
2023-05-25T12:12:51.746Z,41.66
2023-05-25T12:15:33.955Z,41.63
2023-05-25T12:18:01.133Z,43.76
2023-05-25T12:20:27.945Z,40.67
2023-05-25T12:22:54.660Z,39.59
2023-05-25T12:25:46.609Z,40.52
2023-05-25T14:00:24.368Z,41.22
2023-05-25T14:02:51.130Z,41.36
2023-05-25T14:05:19.770Z,41.63
2023-05-25T14:07:47.218Z,41.43
2023-05-25T14:10:14.009Z,41.63
2023-05-25T14:12:41.042Z,42.18
2023-05-25T14:15:38.718Z,41.67
2023-05-25T14:18:42.449Z,42.12
2023-05-25T14:21:11.079Z,42.75
2023-05-25T14:23:37.633Z,42.97
2023-05-25T14:26:04.591Z,42.96
2023-05-25T14:28:31.222Z,43.03
2023-05-25T14:30:57.878Z,41.91
2023-05-25T14:33:24.467Z,42.15
2023-05-25T14:35:51.086Z,42.79
2023-05-25T14:38:17.649Z,42.21
2023-05-25T14:41:00.140Z,41.57
2023-05-25T14:43:26.778Z,42.07
2023-05-25T14:45:53.308Z,41.99
2023-05-25T14:48:23.354Z,41.80
2023-05-25T14:50:50.009Z,41.34
2023-05-25T14:53:16.770Z,41.33
2023-05-25T14:55:43.817Z,41.33
2023-05-25T14:58:11.263Z,41.27
2023-05-25T15:00:37.896Z,41.93
2023-05-25T15:03:04.738Z,42.27
2023-05-25T15:05:31.389Z,42.38
2023-05-25T15:07:58.970Z,42.45
2023-05-25T15:10:25.655Z,42.70
2023-05-25T15:12:52.287Z,42.89
2023-05-25T15:15:18.835Z,42.78
2023-05-25T15:17:45.458Z,42.27
2023-05-25T15:20:12.042Z,42.04
2023-05-25T15:22:38.629Z,41.86
2023-05-25T15:25:05.437Z,42.26
2023-05-25T15:27:32.288Z,42.49
2023-05-25T15:29:58.956Z,42.16
2023-05-25T15:32:25.974Z,42.25
2023-05-25T15:34:52.627Z,42.79
2023-05-25T15:37:19.269Z,42.52
2023-05-25T15:39:45.828Z,42.75
2023-05-25T15:42:12.557Z,43.25
2023-05-25T15:44:39.110Z,43.37
2023-05-25T15:47:06.614Z,43.02
2023-05-25T15:49:36.695Z,42.71
2023-05-25T15:52:03.448Z,43.19
2023-05-25T15:54:30.026Z,42.87
2023-05-25T15:56:56.592Z,42.56
2023-05-25T15:59:23.151Z,42.46
2023-05-25T16:01:49.847Z,42.92
2023-05-25T16:04:16.633Z,43.32
2023-05-25T16:06:43.312Z,44.07
2023-05-25T16:09:09.865Z,43.18
2023-05-25T16:11:36.556Z,43.45
2023-05-25T16:14:03.170Z,43.25
2023-05-25T16:16:29.874Z,43.80
2023-05-25T16:18:56.497Z,43.11
2023-05-25T16:21:23.172Z,43.53
2023-05-25T16:23:49.913Z,43.67
2023-05-25T16:26:16.600Z,44.19
2023-05-25T16:28:43.186Z,44.06
2023-05-25T16:31:11.089Z,43.80
2023-05-25T16:33:39.119Z,44.01
2023-05-25T16:36:06.064Z,43.80
2023-05-25T16:38:32.649Z,43.90
2023-05-25T16:40:59.206Z,43.79
2023-05-25T16:43:26.801Z,44.67
2023-05-25T16:45:53.437Z,44.25
2023-05-25T16:48:22.426Z,44.26
2023-05-25T16:50:49.773Z,44.31
2023-05-25T16:53:16.306Z,44.47
2023-05-25T16:55:43.655Z,44.85
2023-05-25T16:58:10.454Z,45.09
2023-05-25T17:00:37.054Z,45.32
2023-05-25T17:03:03.751Z,44.91
2023-05-25T17:05:30.630Z,44.94
2023-05-25T17:07:57.224Z,45.14
2023-05-25T17:10:23.842Z,45.28
2023-05-25T17:12:50.597Z,45.28
2023-05-25T17:15:17.304Z,45.30
2023-05-25T17:17:44.164Z,46.50
2023-05-25T17:20:11.641Z,45.96
2023-05-25T17:22:38.579Z,45.98
2023-05-25T17:25:06.326Z,46.16
2023-05-25T17:27:32.921Z,46.07
2023-05-25T17:29:59.514Z,46.10
2023-05-25T17:32:26.334Z,46.05
2023-05-25T17:34:53.074Z,46.14
2023-05-25T17:37:21.123Z,46.39
2023-05-25T17:39:47.884Z,46.40
2023-05-25T17:42:14.538Z,46.57
2023-05-25T17:44:42.418Z,46.84
2023-05-25T17:47:10.977Z,46.88
2023-05-25T17:49:38.082Z,46.94
2023-05-25T17:52:04.981Z,47.21
2023-05-25T17:54:31.526Z,47.20
2023-05-25T17:56:58.131Z,47.25
2023-05-25T17:59:24.695Z,47.32
2023-05-25T18:01:51.864Z,47.79
2023-05-25T18:04:19.714Z,48.33
2023-05-25T18:06:47.349Z,48.44
2023-05-25T18:09:14.060Z,48.34
2023-05-25T18:11:43.001Z,48.48
2023-05-25T18:14:09.560Z,48.80
2023-05-25T18:16:44.509Z,48.87
2023-05-25T18:19:11.347Z,48.99
2023-05-25T18:21:38.548Z,49.32
2023-05-25T18:24:07.395Z,49.64
2023-05-25T18:26:34.070Z,49.76
2023-05-25T18:29:00.766Z,49.85
2023-05-25T18:31:30.637Z,49.90
2023-05-25T18:33:57.285Z,50.33
2023-05-25T18:36:23.966Z,50.71
2023-05-25T18:38:50.546Z,50.78
2023-05-25T18:41:19.166Z,50.93
2023-05-25T18:43:49.989Z,50.87
2023-05-25T18:46:16.920Z,50.93
2023-05-25T18:48:43.619Z,50.94
2023-05-25T18:51:10.493Z,50.88
2023-05-25T18:53:37.161Z,51.03
2023-05-25T18:56:03.735Z,51.30
2023-05-25T18:58:35.499Z,51.50
2023-05-25T19:01:02.133Z,51.67
2023-05-25T19:03:28.797Z,51.88
2023-05-25T19:05:55.468Z,52.22
2023-05-25T19:08:23.506Z,51.96
2023-05-25T19:10:51.030Z,51.87
2023-05-25T19:13:17.654Z,51.93
2023-05-25T19:15:44.558Z,51.79
2023-05-25T19:18:11.524Z,51.70
2023-05-25T19:20:38.376Z,51.91
2023-05-25T19:23:04.977Z,51.87
2023-05-25T19:25:31.635Z,52.17
2023-05-25T19:27:59.635Z,52.24
2023-05-25T19:30:26.269Z,52.15
2023-05-25T19:32:52.876Z,52.35
2023-05-25T19:35:19.561Z,52.40
2023-05-25T19:37:46.312Z,52.37
2023-05-25T19:40:13.574Z,52.15
2023-05-25T19:42:40.193Z,52.18
2023-05-25T19:45:07.101Z,52.44
2023-05-25T19:47:33.855Z,52.58
2023-05-25T19:50:02.150Z,52.56
2023-05-25T19:52:28.744Z,52.44
2023-05-25T19:54:57.181Z,52.63
2023-05-25T19:57:23.876Z,53.09
2023-05-25T19:59:51.113Z,53.05
2023-05-25T20:02:17.704Z,53.17
2023-05-25T20:04:47.280Z,53.18
2023-05-25T20:07:14.194Z,53.20
2023-05-25T20:09:41.439Z,53.21
2023-05-25T20:12:09.441Z,53.42
2023-05-25T20:14:36.013Z,53.56
2023-05-25T20:17:02.745Z,54.15
2023-05-25T20:19:29.767Z,54.31
2023-05-25T20:22:11.448Z,54.36
2023-05-25T20:24:38.114Z,54.21
2023-05-25T20:27:06.075Z,54.36
2023-05-25T20:29:33.654Z,54.45
2023-05-25T20:32:00.739Z,54.37
2023-05-25T20:34:27.372Z,54.71
2023-05-25T20:36:53.974Z,54.45
2023-05-25T20:39:20.581Z,54.38
2023-05-25T20:41:47.155Z,54.33
2023-05-25T20:44:14.122Z,54.45
2023-05-25T20:46:40.838Z,54.54
2023-05-25T20:49:07.450Z,54.46
2023-05-25T20:51:33.975Z,54.43
2023-05-25T20:54:00.833Z,54.50
2023-05-25T20:56:27.710Z,54.69
2023-05-25T20:58:54.376Z,54.66
2023-05-25T21:01:20.955Z,54.60
2023-05-25T21:03:47.824Z,54.66
2023-05-25T21:06:14.537Z,54.54
2023-05-25T21:08:41.145Z,54.59
2023-05-25T21:11:07.736Z,54.60
2023-05-25T21:13:34.336Z,54.81
2023-05-25T21:16:01.247Z,54.96
2023-05-25T21:18:27.817Z,54.67
2023-05-25T21:20:54.745Z,54.81
2023-05-25T21:23:21.361Z,55.00
2023-05-25T21:25:48.168Z,55.09
2023-05-25T21:28:15.150Z,55.34
2023-05-25T21:30:41.707Z,54.89
2023-05-25T21:33:08.500Z,54.86
2023-05-25T21:35:35.211Z,55.19
2023-05-25T21:38:01.802Z,55.08
2023-05-25T21:40:28.663Z,55.05
2023-05-25T21:42:55.323Z,55.13
2023-05-25T21:45:21.886Z,55.39
2023-05-25T21:47:48.626Z,55.40
2023-05-25T21:50:15.419Z,55.87
2023-05-25T21:52:42.174Z,56.05
2023-05-25T21:55:09.168Z,56.25
2023-05-25T21:57:36.303Z,56.40
2023-05-25T22:00:03.789Z,56.65
2023-05-25T22:02:30.604Z,56.94
2023-05-25T22:04:57.331Z,57.10
2023-05-25T22:07:23.941Z,57.43
2023-05-25T22:09:50.649Z,57.57
2023-05-25T22:12:17.257Z,57.79
2023-05-25T22:14:43.808Z,57.90
2023-05-25T22:17:10.509Z,57.95
2023-05-25T22:19:37.148Z,58.08
2023-05-25T22:22:03.864Z,58.25
2023-05-25T22:24:30.521Z,58.33
2023-05-25T22:26:57.061Z,58.32
2023-05-25T22:29:23.663Z,58.16
2023-05-25T22:31:50.734Z,58.38
2023-05-25T22:34:17.402Z,58.52
2023-05-25T22:36:44.009Z,58.71
2023-05-25T22:39:10.746Z,58.69
2023-05-25T22:41:37.360Z,58.66
2023-05-25T22:44:03.987Z,58.75
2023-05-25T22:46:30.683Z,59.06
2023-05-25T22:48:57.294Z,59.23
2023-05-25T22:51:23.859Z,59.19
2023-05-25T22:53:50.446Z,59.43
2023-05-25T22:56:17.059Z,59.31
2023-05-25T22:58:43.668Z,59.66
2023-05-25T23:01:10.365Z,58.78
2023-05-25T23:03:37.071Z,59.13
2023-05-25T23:06:03.776Z,59.40
2023-05-25T23:08:30.538Z,59.85
2023-05-25T23:10:57.120Z,59.93
2023-05-25T23:13:24.281Z,59.96
2023-05-25T23:15:51.019Z,60.13
2023-05-25T23:18:17.674Z,60.36
2023-05-25T23:20:44.965Z,60.51
2023-05-25T23:23:11.951Z,60.31
2023-05-25T23:25:38.556Z,60.41
2023-05-25T23:28:05.161Z,60.39
2023-05-25T23:30:31.734Z,60.64
2023-05-25T23:32:58.388Z,60.55
2023-05-25T23:35:25.085Z,60.79
2023-05-25T23:37:52.152Z,60.51
2023-05-25T23:40:18.980Z,60.49
2023-05-25T23:42:45.934Z,60.51
2023-05-25T23:45:13.633Z,60.41
2023-05-25T23:47:40.753Z,60.77
2023-05-25T23:50:07.513Z,60.63
2023-05-25T23:52:34.165Z,60.90
2023-05-25T23:55:00.740Z,60.94
2023-05-25T23:57:27.335Z,61.00
2023-05-25T23:59:53.899Z,61.22
